sensor_id;sensor_type;location;lat;lon;timestamp;temperature;humidity
1205;DHT22;592;48.764;9.174;2023-11-21T19:21:40;8.20;99.90
1205;DHT22;592;48.764;9.174;2023-11-21T19:26:45;8.10;99.90
1205;DHT22;592;48.764;9.174;2023-11-21T19:29:12;8.10;99.90
1205;DHT22;592;48.764;9.174;2023-11-21T19:31:41;8.00;99.90
1205;DHT22;592;48.764;9.174;2023-11-21T20:52:01;7.90;99.90
1205;DHT22;592;48.764;9.174;2023-11-21T20:54:32;7.90;99.90
1205;DHT22;592;48.764;9.174;2023-11-21T20:57:02;7.90;99.90
1205;DHT22;592;48.764;9.174;2023-11-21T20:59:35;7.90;99.90
1205;DHT22;592;48.764;9.174;2023-11-21T21:02:05;7.80;99.90
1205;DHT22;592;48.764;9.174;2023-11-21T21:04:36;7.90;99.90
1205;DHT22;592;48.764;9.174;2023-11-21T21:07:04;7.80;99.90
1205;DHT22;592;48.764;9.174;2023-11-21T21:09:32;7.80;99.90
1205;DHT22;592;48.764;9.174;2023-11-21T21:12:03;7.80;99.90
1205;DHT22;592;48.764;9.174;2023-11-21T21:14:34;7.80;99.90
1205;DHT22;592;48.764;9.174;2023-11-21T21:17:06;7.80;99.90
1205;DHT22;592;48.764;9.174;2023-11-21T21:19:35;7.80;99.90
1205;DHT22;592;48.764;9.174;2023-11-21T21:22:06;7.80;99.90
1205;DHT22;592;48.764;9.174;2023-11-21T21:24:37;7.80;99.90
1205;DHT22;592;48.764;9.174;2023-11-21T21:27:06;7.80;99.90
1205;DHT22;592;48.764;9.174;2023-11-21T21:29:33;7.80;99.90
1205;DHT22;592;48.764;9.174;2023-11-21T21:32:07;7.80;99.90
1205;DHT22;592;48.764;9.174;2023-11-21T21:34:34;7.70;99.90
1205;DHT22;592;48.764;9.174;2023-11-21T21:37:03;7.80;99.90
1205;DHT22;592;48.764;9.174;2023-11-21T21:39:33;7.80;99.90
1205;DHT22;592;48.764;9.174;2023-11-21T21:42:01;7.90;99.90
1205;DHT22;592;48.764;9.174;2023-11-21T21:44:29;7.80;99.90
1205;DHT22;592;48.764;9.174;2023-11-21T21:46:55;7.90;99.90
1205;DHT22;592;48.764;9.174;2023-11-21T21:49:22;7.80;99.90
1205;DHT22;592;48.764;9.174;2023-11-21T21:51:51;7.80;99.90
1205;DHT22;592;48.764;9.174;2023-11-21T21:54:21;7.70;99.90
1205;DHT22;592;48.764;9.174;2023-11-21T21:56:52;7.80;99.90
1205;DHT22;592;48.764;9.174;2023-11-21T21:59:19;7.90;99.90
1205;DHT22;592;48.764;9.174;2023-11-21T22:01:47;7.90;99.90
1205;DHT22;592;48.764;9.174;2023-11-21T22:04:14;7.90;99.90
1205;DHT22;592;48.764;9.174;2023-11-21T22:06:45;7.90;99.90
1205;DHT22;592;48.764;9.174;2023-11-21T22:09:14;7.80;99.90
1205;DHT22;592;48.764;9.174;2023-11-21T22:11:43;7.80;99.90
1205;DHT22;592;48.764;9.174;2023-11-21T22:14:16;7.70;99.90
1205;DHT22;592;48.764;9.174;2023-11-21T22:17:02;7.60;99.90
1205;DHT22;592;48.764;9.174;2023-11-21T22:19:30;7.70;99.90
1205;DHT22;592;48.764;9.174;2023-11-21T22:22:05;7.70;99.90
1205;DHT22;592;48.764;9.174;2023-11-21T22:24:38;7.70;99.90
1205;DHT22;592;48.764;9.174;2023-11-21T22:27:27;7.80;99.90
1205;DHT22;592;48.764;9.174;2023-11-21T22:30:07;7.70;99.90
1205;DHT22;592;48.764;9.174;2023-11-21T22:32:57;7.70;99.90
1205;DHT22;592;48.764;9.174;2023-11-21T22:35:45;7.60;99.90
1205;DHT22;592;48.764;9.174;2023-11-21T22:38:16;7.60;99.90
1205;DHT22;592;48.764;9.174;2023-11-21T22:40:45;7.60;99.90
1205;DHT22;592;48.764;9.174;2023-11-21T22:43:13;7.60;99.90
1205;DHT22;592;48.764;9.174;2023-11-21T22:45:45;7.70;99.90
1205;DHT22;592;48.764;9.174;2023-11-21T22:48:11;7.60;99.90
1205;DHT22;592;48.764;9.174;2023-11-21T22:50:38;7.70;99.90
1205;DHT22;592;48.764;9.174;2023-11-21T22:53:06;7.70;99.90
1205;DHT22;592;48.764;9.174;2023-11-21T22:55:34;7.70;99.90
1205;DHT22;592;48.764;9.174;2023-11-21T22:58:01;7.80;99.90
1205;DHT22;592;48.764;9.174;2023-11-21T23:00:28;7.70;99.90
1205;DHT22;592;48.764;9.174;2023-11-21T23:02:57;7.70;99.90
1205;DHT22;592;48.764;9.174;2023-11-21T23:05:25;7.70;99.90
1205;DHT22;592;48.764;9.174;2023-11-21T23:07:52;7.60;99.90
1205;DHT22;592;48.764;9.174;2023-11-21T23:10:21;7.70;99.90
1205;DHT22;592;48.764;9.174;2023-11-21T23:12:49;7.70;99.90
1205;DHT22;592;48.764;9.174;2023-11-21T23:15:16;7.70;99.90
1205;DHT22;592;48.764;9.174;2023-11-21T23:17:46;7.70;99.90
1205;DHT22;592;48.764;9.174;2023-11-21T23:20:14;7.70;99.90
1205;DHT22;592;48.764;9.174;2023-11-21T23:22:46;7.60;99.90
1205;DHT22;592;48.764;9.174;2023-11-21T23:25:13;7.60;99.90
1205;DHT22;592;48.764;9.174;2023-11-21T23:27:41;7.50;99.90
1205;DHT22;592;48.764;9.174;2023-11-21T23:30:09;7.50;99.90
1205;DHT22;592;48.764;9.174;2023-11-21T23:32:36;7.50;99.90
1205;DHT22;592;48.764;9.174;2023-11-21T23:35:06;7.40;99.90
1205;DHT22;592;48.764;9.174;2023-11-21T23:37:34;7.40;99.90
1205;DHT22;592;48.764;9.174;2023-11-21T23:40:01;7.50;99.90
1205;DHT22;592;48.764;9.174;2023-11-21T23:42:32;7.40;99.90
1205;DHT22;592;48.764;9.174;2023-11-21T23:44:58;7.40;99.90
1205;DHT22;592;48.764;9.174;2023-11-21T23:47:26;7.40;99.90
1205;DHT22;592;48.764;9.174;2023-11-21T23:49:52;7.40;99.90
1205;DHT22;592;48.764;9.174;2023-11-21T23:52:19;7.40;99.90
1205;DHT22;592;48.764;9.174;2023-11-21T23:54:48;7.30;99.90
1205;DHT22;592;48.764;9.174;2023-11-21T23:57:16;7.40;99.90
1205;DHT22;592;48.764;9.174;2023-11-21T23:59:43;7.30;99.90
